Time;durP1;ratioP1;P1;durP2;ratioP2;P2;SDS_P1;SDS_P2;PMS_P1;PMS_P2;Temp;Humidity;BMP_temperature;BMP_pressure;BME280_temperature;BME280_humidity;BME280_pressure;Samples;Min_cycle;Max_cycle;Signal;HPM_P1;HPM_P2
2021/12/17 00:01:14;;;;;;;17.07;12.47;;;;;;;5.65;84.77;100563.19;1759863;80;20963;-76
2021/12/17 00:03:50;;;;;;;17.42;12.28;;;;;;;5.69;84.74;100557.44;1714519;81;21399;-76
2021/12/17 00:06:41;;;;;;;18.00;12.07;;;;;;;5.68;84.61;100560.61;1759902;81;21014;-77
2021/12/17 00:08:58;;;;;;;16.23;11.60;;;;;;;5.67;84.51;100555.03;1756550;81;21007;-76
2021/12/17 00:11:26;;;;;;;17.10;12.95;;;;;;;5.68;84.37;100561.13;1760046;81;21031;-77
2021/12/17 00:13:55;;;;;;;18.35;12.23;;;;;;;5.65;84.32;100563.71;1759908;80;21565;-77
2021/12/17 00:16:32;;;;;;;17.65;12.40;;;;;;;5.66;84.28;100574.62;1758893;81;21078;-75
2021/12/17 00:19:16;;;;;;;15.48;11.45;;;;;;;5.67;84.28;100566.16;1758724;81;21459;-77
2021/12/17 00:46:32;;;;;;;15.30;11.15;;;;;;;5.69;83.66;100562.22;1708088;83;21555;-76
2021/12/17 00:48:41;;;;;;;13.93;9.95;;;;;;;5.63;83.49;100569.77;1707990;84;21013;-77
2021/12/17 00:52:03;;;;;;;15.35;10.58;;;;;;;5.63;83.50;100571.90;1708078;84;21046;-76
2021/12/17 00:53:46;;;;;;;12.80;9.45;;;;;;;5.63;83.42;100565.80;1694956;84;21421;-77
2021/12/17 00:56:13;;;;;;;13.98;9.90;;;;;;;5.65;83.37;100557.09;1707879;84;21127;-77
2021/12/17 00:58:40;;;;;;;14.28;9.80;;;;;;;5.68;83.27;100557.97;1707923;84;21486;-77
2021/12/17 01:01:07;;;;;;;16.32;10.40;;;;;;;5.67;83.10;100556.88;1708060;84;21140;-77
2021/12/17 01:03:34;;;;;;;15.93;11.15;;;;;;;5.67;82.93;100551.58;1728288;83;20983;-78
2021/12/17 01:06:01;;;;;;;14.60;9.90;;;;;;;5.66;82.88;100544.15;1728920;83;21049;-78
2021/12/17 01:08:27;;;;;;;13.50;9.08;;;;;;;5.69;82.81;100542.87;1728422;83;21770;-76
2021/12/17 01:10:55;;;;;;;13.43;9.03;;;;;;;5.72;82.60;100547.72;1728598;83;21045;-76
2021/12/17 01:13:41;;;;;;;13.50;9.20;;;;;;;5.70;82.45;100543.98;1728451;83;21470;-77
2021/12/17 01:16:23;;;;;;;12.65;8.00;;;;;;;5.70;82.33;100540.01;1728662;83;21528;-77
2021/12/17 01:19:04;;;;;;;11.57;7.28;;;;;;;5.72;82.19;100537.92;1727526;83;20995;-76
2021/12/17 01:21:32;;;;;;;10.85;7.22;;;;;;;5.76;82.07;100536.95;1724660;83;21496;-77
2021/12/17 01:35:28;;;;;;;11.05;6.60;;;;;;;5.89;81.55;100531.49;1724435;83;21134;-74
2021/12/17 01:42:57;;;;;;;8.80;5.75;;;;;;;5.86;81.27;100516.84;1711188;83;20773;-76
2021/12/17 01:45:29;;;;;;;9.48;5.00;;;;;;;5.84;81.24;100525.53;1734984;80;21477;-76
2021/12/17 01:47:53;;;;;;;6.42;4.70;;;;;;;5.82;81.18;100517.02;1758057;81;21754;-75
2021/12/17 02:01:06;;;;;;;6.37;4.10;;;;;;;5.76;81.02;100507.80;1759040;81;21466;-75
2021/12/17 02:03:34;;;;;;;7.17;4.60;;;;;;;5.72;81.05;100509.30;1758334;81;21042;-74
2021/12/17 02:06:03;;;;;;;6.72;4.33;;;;;;;5.69;81.10;100506.57;1758925;81;20995;-75
2021/12/17 02:08:31;;;;;;;7.35;4.50;;;;;;;5.69;81.13;100502.59;1758341;81;21037;-75
2021/12/17 02:32:25;;;;;;;7.33;3.98;;;;;;;5.71;80.87;100497.89;1734104;82;21062;-74
2021/12/17 02:35:08;;;;;;;6.58;3.95;;;;;;;5.70;80.79;100492.31;1728397;82;21062;-75
2021/12/17 02:37:24;;;;;;;7.60;4.42;;;;;;;5.69;80.80;100497.81;1729394;82;21023;-75
2021/12/17 02:45:32;;;;;;;7.03;3.83;;;;;;;5.63;80.65;100496.90;1726987;81;21006;-75
2021/12/17 02:45:35;;;;;;;7.55;4.20;;;;;;;5.65;80.57;100494.81;1734149;81;21699;-75
2021/12/17 02:48:13;;;;;;;6.35;3.17;;;;;;;5.65;80.53;100486.86;1729178;82;21089;-75
2021/12/17 02:50:52;;;;;;;5.95;3.12;;;;;;;5.63;80.39;100487.63;1727681;82;21418;-75
2021/12/17 02:53:20;;;;;;;6.90;3.33;;;;;;;5.60;80.26;100482.25;1718917;82;22135;-75
2021/12/17 02:55:54;;;;;;;7.25;2.92;;;;;;;5.59;80.15;100485.95;1730649;82;21035;-75
2021/12/17 02:58:23;;;;;;;4.97;2.90;;;;;;;5.58;80.01;100482.98;1730077;82;21569;-75
2021/12/17 03:00:50;;;;;;;6.10;2.90;;;;;;;5.55;79.94;100484.76;1731822;82;21011;-75
2021/12/17 03:03:20;;;;;;;6.28;3.10;;;;;;;5.53;79.88;100476.25;1719420;82;21026;-75
2021/12/17 03:05:48;;;;;;;5.00;2.80;;;;;;;5.53;79.77;100478.09;1727287;82;21121;-75
2021/12/17 03:08:16;;;;;;;4.67;2.80;;;;;;;5.56;79.68;100485.56;1729048;82;21564;-75
2021/12/17 03:10:46;;;;;;;5.47;3.02;;;;;;;5.55;79.62;100468.86;1729142;82;21558;-75
2021/12/17 03:13:16;;;;;;;5.60;2.83;;;;;;;5.57;79.51;100477.92;1729311;82;21003;-75
2021/12/17 03:15:50;;;;;;;5.17;3.00;;;;;;;5.57;79.45;100470.78;1732196;82;21066;-75
2021/12/17 03:23:44;;;;;;;5.42;2.70;;;;;;;5.59;79.19;100472.70;1738831;82;21510;-74
2021/12/17 03:26:16;;;;;;;5.45;2.60;;;;;;;5.59;79.15;100470.05;1738577;82;20978;-75
2021/12/17 03:28:52;;;;;;;4.85;2.50;;;;;;;5.59;79.07;100473.19;1738899;82;21078;-75
2021/12/17 03:31:20;;;;;;;5.78;2.58;;;;;;;5.59;79.06;100477.16;1739020;82;21155;-74
2021/12/17 03:33:50;;;;;;;5.95;2.60;;;;;;;5.58;79.03;100476.88;1738603;82;21600;-74
2021/12/17 03:36:19;;;;;;;6.87;2.42;;;;;;;5.57;78.96;100471.30;1739598;82;21481;-75
2021/12/17 03:38:49;;;;;;;6.35;2.90;;;;;;;5.55;78.93;100474.16;1738762;82;21592;-74
2021/12/17 03:41:28;;;;;;;4.92;2.50;;;;;;;5.56;78.92;100460.39;1713179;81;20938;-74
2021/12/17 03:43:54;;;;;;;5.53;2.92;;;;;;;5.57;78.90;100462.83;1730253;82;21481;-75
2021/12/17 03:46:22;;;;;;;5.17;2.80;;;;;;;5.57;78.78;100469.98;1728554;82;21047;-75
2021/12/17 03:48:51;;;;;;;5.83;2.95;;;;;;;5.59;78.62;100475.84;1730212;82;21058;-75
2021/12/17 03:51:19;;;;;;;4.78;2.67;;;;;;;5.59;78.54;100472.70;1732641;82;20952;-74
2021/12/17 03:53:50;;;;;;;4.45;2.50;;;;;;;5.59;78.42;100460.78;1729720;82;21552;-75
2021/12/17 03:56:17;;;;;;;6.03;2.72;;;;;;;5.59;78.32;100456.80;1729804;82;21083;-75
2021/12/17 03:58:45;;;;;;;6.75;2.85;;;;;;;5.58;78.18;100459.66;1728961;82;21584;-75
2021/12/17 04:01:13;;;;;;;4.53;2.70;;;;;;;5.56;78.12;100463.05;1732495;82;21616;-75
2021/12/17 04:03:40;;;;;;;6.80;3.10;;;;;;;5.57;78.01;100454.08;1730027;82;20995;-75
2021/12/17 04:06:09;;;;;;;6.25;3.27;;;;;;;5.56;77.99;100455.09;1731919;82;21022;-75
2021/12/17 04:08:38;;;;;;;6.37;2.83;;;;;;;5.54;78.01;100454.01;1726121;82;21881;-75
2021/12/17 04:11:19;;;;;;;4.92;3.05;;;;;;;5.36;78.37;100453.56;1720149;82;21071;-75
2021/12/17 04:13:51;;;;;;;4.50;2.80;;;;;;;5.29;78.66;100451.49;1707748;82;20997;-75
2021/12/17 04:16:13;;;;;;;6.15;2.92;;;;;;;5.27;78.81;100457.55;1729089;82;21010;-75
2021/12/17 04:18:41;;;;;;;6.35;3.30;;;;;;;5.26;78.86;100467.03;1729259;82;21074;-75
2021/12/17 04:21:14;;;;;;;6.42;3.20;;;;;;;5.45;78.52;100458.53;1732023;82;21546;-75
2021/12/17 04:23:38;;;;;;;6.05;3.00;;;;;;;5.49;78.30;100454.39;1726019;81;21134;-75
2021/12/17 04:26:06;;;;;;;4.40;2.72;;;;;;;5.35;78.44;100451.13;1730681;82;20991;-76
2021/12/17 04:28:35;;;;;;;7.42;2.90;;;;;;;5.27;78.70;100450.92;1731042;82;21572;-76
2021/12/17 04:31:02;;;;;;;5.05;2.50;;;;;;;5.26;78.84;100450.61;1730895;82;20967;-76
2021/12/17 04:33:30;;;;;;;5.35;2.70;;;;;;;5.29;78.86;100442.22;1743794;81;21557;-76
2021/12/17 04:35:58;;;;;;;6.33;2.58;;;;;;;5.29;78.88;100446.20;1730397;82;20963;-77
2021/12/17 04:38:27;;;;;;;6.42;2.75;;;;;;;5.29;78.87;100443.55;1730420;82;21069;-76
2021/12/17 04:40:55;;;;;;;5.55;2.50;;;;;;;5.47;78.54;100444.55;1728896;82;21001;-76
2021/12/17 04:43:40;;;;;;;4.58;2.12;;;;;;;5.52;78.24;100451.28;1730723;82;20967;-76
2021/12/17 04:46:15;;;;;;;5.40;2.45;;;;;;;5.53;78.04;100447.63;1727135;82;21514;-76
2021/12/17 04:59:34;;;;;;;6.92;2.45;;;;;;;5.53;76.87;100439.68;1730678;82;21462;-76
2021/12/17 05:02:03;;;;;;;6.17;2.95;;;;;;;5.52;76.60;100440.69;1730879;82;21581;-76
2021/12/17 05:04:33;;;;;;;5.95;2.30;;;;;;;5.51;76.50;100441.73;1728886;82;21137;-76
2021/12/17 05:07:01;;;;;;;6.03;2.45;;;;;;;5.52;76.43;100436.72;1732144;82;21579;-76
2021/12/17 05:09:40;;;;;;;7.22;2.77;;;;;;;5.54;76.27;100446.58;1730416;82;21568;-76
2021/12/17 05:20:28;;;;;;;7.22;3.17;;;;;;;5.51;75.55;100444.38;1733473;82;21102;-76
2021/12/17 05:22:44;;;;;;;8.10;3.10;;;;;;;5.53;75.59;100439.68;1729135;82;21054;-75
2021/12/17 05:25:11;;;;;;;7.33;2.72;;;;;;;5.53;75.61;100440.48;1731164;82;21546;-75
2021/12/17 05:27:38;;;;;;;7.47;3.27;;;;;;;5.55;75.57;100441.05;1729521;82;21093;-76
2021/12/17 05:30:08;;;;;;;7.42;3.12;;;;;;;5.57;75.62;100434.21;1730678;82;21541;-76
2021/12/17 05:32:34;;;;;;;8.13;3.10;;;;;;;5.58;75.63;100437.95;1734850;82;21481;-76
2021/12/17 05:35:03;;;;;;;9.95;3.05;;;;;;;5.60;75.39;100438.53;1738964;82;21014;-76
2021/12/17 05:37:31;;;;;;;6.17;2.80;;;;;;;5.59;75.37;100438.75;1738914;82;22007;-77
2021/12/17 05:39:59;;;;;;;5.92;2.65;;;;;;;5.60;75.32;100439.86;1739101;82;21626;-77
2021/12/17 05:42:26;;;;;;;6.65;2.70;;;;;;;5.61;75.14;100436.17;1711840;82;21779;-76
2021/12/17 05:44:59;;;;;;;4.33;2.50;;;;;;;5.57;75.17;100436.34;1736686;82;21010;-76
2021/12/17 05:47:24;;;;;;;5.33;2.80;;;;;;;5.58;75.16;100437.14;1738332;82;21496;-78
2021/12/17 05:49:51;;;;;;;7.45;2.98;;;;;;;5.57;75.12;100436.34;1740147;82;21536;-76
2021/12/17 05:52:20;;;;;;;7.05;3.25;;;;;;;5.57;75.01;100440.83;1740079;82;21057;-76
2021/12/17 05:54:48;;;;;;;6.08;2.90;;;;;;;5.56;74.92;100437.38;1738216;82;21014;-78
2021/12/17 05:57:15;;;;;;;5.95;2.95;;;;;;;5.54;74.82;100442.61;1702542;82;20990;-77
2021/12/17 05:59:44;;;;;;;7.25;3.72;;;;;;;5.54;74.76;100432.02;1726274;82;21003;-76
2021/12/17 06:02:14;;;;;;;8.13;3.70;;;;;;;5.52;74.70;100430.09;1729847;82;21103;-77
2021/12/17 06:04:42;;;;;;;10.65;3.80;;;;;;;5.54;74.62;100432.81;1730896;81;21022;-78
2021/12/17 06:07:10;;;;;;;9.20;3.30;;;;;;;5.53;74.69;100431.73;1729067;82;20991;-77
2021/12/17 06:09:38;;;;;;;7.10;3.33;;;;;;;5.51;74.72;100433.78;1730861;82;21074;-77
2021/12/17 06:12:08;;;;;;;5.40;3.15;;;;;;;5.50;74.75;100444.10;1730576;82;21007;-78
2021/12/17 06:14:35;;;;;;;7.17;3.20;;;;;;;5.51;74.71;100445.70;1723156;83;21157;-78
2021/12/17 06:17:03;;;;;;;6.08;3.00;;;;;;;5.51;74.68;100448.36;1723159;83;21051;-78
2021/12/17 06:19:31;;;;;;;7.42;3.08;;;;;;;5.52;74.64;100439.36;1728753;82;21038;-78
2021/12/17 06:21:58;;;;;;;7.30;3.65;;;;;;;5.53;74.58;100445.78;1728367;82;21140;-77
2021/12/17 06:24:26;;;;;;;6.72;3.12;;;;;;;5.53;74.61;100443.66;1732127;82;20998;-78
2021/12/17 06:26:54;;;;;;;7.10;2.90;;;;;;;5.53;74.64;100441.00;1724346;82;21109;-78
2021/12/17 06:29:20;;;;;;;7.17;3.27;;;;;;;5.54;74.48;100450.03;1730872;82;21030;-78
2021/12/17 06:31:49;;;;;;;6.15;3.10;;;;;;;5.55;74.47;100445.02;1738495;81;21058;-76
2021/12/17 06:34:16;;;;;;;5.72;3.20;;;;;;;5.56;74.46;100446.66;1738775;82;20971;-76
2021/12/17 06:36:43;;;;;;;6.85;3.50;;;;;;;5.61;74.39;100448.61;1738819;82;21022;-76
2021/12/17 06:39:10;;;;;;;8.48;3.70;;;;;;;5.58;74.34;100446.41;1739344;82;22141;-76
2021/12/17 06:41:38;;;;;;;8.15;3.70;;;;;;;5.58;74.33;100444.56;1727305;81;21097;-76
2021/12/17 06:44:10;;;;;;;7.65;3.27;;;;;;;5.61;74.25;100453.39;1741625;81;21151;-77
2021/12/17 06:46:50;;;;;;;7.15;3.17;;;;;;;5.61;74.20;100445.44;1741914;81;21012;-77
2021/12/17 06:49:24;;;;;;;7.83;3.70;;;;;;;5.60;74.16;100450.98;1733643;81;21109;-77
2021/12/17 06:54:56;;;;;;;7.83;3.80;;;;;;;5.59;74.12;100439.58;1743281;81;21497;-78
2021/12/17 07:17:08;;;;;;;7.87;3.87;;;;;;;5.62;73.97;100448.89;1711764;82;21500;-77
2021/12/17 07:17:22;;;;;;;8.25;3.83;;;;;;;5.46;74.51;100452.19;1710783;83;21711;-77
2021/12/17 07:22:48;;;;;;;8.10;3.90;;;;;;;5.44;74.70;100458.25;1710688;83;21088;-78
2021/12/17 07:28:25;;;;;;;9.15;4.42;;;;;;;5.54;74.36;100446.58;1710652;83;21525;-76
2021/12/17 07:33:33;;;;;;;;;;;;;;;5.35;74.65;100444.50;1713459;82;21092;-76
2021/12/17 07:36:12;;;;;;;8.68;4.10;;;;;;;5.35;74.84;100445.30;1706278;83;20452;-76
2021/12/17 07:38:47;;;;;;;9.03;3.95;;;;;;;5.40;74.76;100446.77;1732288;82;21034;-76
2021/12/17 07:41:09;;;;;;;8.45;4.10;;;;;;;5.43;74.86;100449.98;1735665;82;21559;-76
2021/12/17 07:43:40;;;;;;;7.10;4.00;;;;;;;5.49;74.89;100449.09;1737374;82;20962;-78
2021/12/17 07:46:10;;;;;;;8.35;4.50;;;;;;;5.54;74.79;100445.26;1739157;82;21094;-79
2021/12/17 07:48:39;;;;;;;8.50;4.05;;;;;;;5.76;74.26;100446.36;1740002;82;20954;-79
2021/12/17 07:51:11;;;;;;;7.22;3.42;;;;;;;5.83;73.94;100451.03;1739851;82;21540;-77
2021/12/17 07:53:40;;;;;;;7.85;4.12;;;;;;;5.90;73.60;100446.14;1739207;82;20955;-77
2021/12/17 07:56:11;;;;;;;7.62;3.67;;;;;;;5.92;73.42;100448.83;1739433;82;21512;-77
2021/12/17 07:58:39;;;;;;;6.97;3.35;;;;;;;5.89;73.42;100445.34;1740331;82;21073;-77
2021/12/17 08:01:08;;;;;;;5.87;2.95;;;;;;;6.01;73.17;100439.55;1740028;82;21053;-77
2021/12/17 08:03:37;;;;;;;5.35;3.08;;;;;;;5.86;73.12;100446.59;1740278;82;20998;-77
2021/12/17 08:06:11;;;;;;;5.35;2.50;;;;;;;6.00;72.63;100451.72;1725085;82;21584;-77
2021/12/17 08:08:42;;;;;;;5.45;2.58;;;;;;;5.99;72.37;100442.12;1736304;82;21022;-77
2021/12/17 08:11:11;;;;;;;5.28;2.22;;;;;;;6.00;72.27;100449.87;1739238;82;48096;-77
2021/12/17 08:13:44;;;;;;;5.20;2.50;;;;;;;6.00;72.20;100455.69;1740076;82;21505;-77
2021/12/17 08:23:07;;;;;;;3.87;1.95;;;;;;;5.95;72.25;100452.91;1740239;82;21081;-77
2021/12/17 08:29:28;;;;;;;5.03;2.47;;;;;;;5.71;72.68;100434.29;1740065;82;21045;-77
2021/12/17 08:31:55;;;;;;;4.72;3.00;;;;;;;5.62;73.13;100442.27;1740017;82;21096;-77
2021/12/17 08:34:24;;;;;;;7.75;3.85;;;;;;;5.47;73.78;100434.76;1739708;82;21042;-76
2021/12/17 08:36:51;;;;;;;6.90;3.40;;;;;;;5.49;74.27;100435.84;1740040;82;21544;-76
2021/12/17 08:39:18;;;;;;;5.53;2.80;;;;;;;5.40;74.71;100442.80;1739676;82;20969;-76
2021/12/17 08:41:51;;;;;;;4.15;2.35;;;;;;;5.32;75.11;100448.40;1739937;82;21036;-75
2021/12/17 08:44:15;;;;;;;3.45;2.10;;;;;;;5.26;75.32;100442.67;1739455;82;21472;-75
2021/12/17 08:46:44;;;;;;;4.70;2.20;;;;;;;5.20;75.51;100440.11;1735739;82;21058;-75
2021/12/17 08:49:15;;;;;;;4.95;2.30;;;;;;;5.17;75.83;100435.58;1734915;82;22102;-75
2021/12/17 08:51:48;;;;;;;4.47;2.60;;;;;;;5.17;76.04;100432.12;1738519;82;21044;-76
2021/12/17 08:54:14;;;;;;;5.10;2.50;;;;;;;5.17;76.30;100429.48;1722129;81;20951;-76
2021/12/17 08:56:45;;;;;;;5.85;2.98;;;;;;;5.16;76.55;100427.84;1738581;81;21034;-76
2021/12/17 08:59:16;;;;;;;5.87;3.58;;;;;;;5.20;76.77;100422.90;1770770;81;21033;-76
2021/12/17 09:01:47;;;;;;;5.97;3.90;;;;;;;5.24;77.01;100426.73;1688877;81;21064;-75
2021/12/17 09:04:17;;;;;;;7.08;4.25;;;;;;;5.25;77.16;100421.72;1710163;84;21044;-74
2021/12/17 09:06:46;;;;;;;6.00;3.90;;;;;;;5.23;77.31;100423.29;1683648;84;21103;-75
2021/12/17 09:09:18;;;;;;;6.10;3.80;;;;;;;5.23;77.37;100425.10;1723973;82;22008;-75
2021/12/17 09:11:42;;;;;;;6.85;3.47;;;;;;;5.20;77.57;100421.58;1727752;82;21050;-75
2021/12/17 09:14:19;;;;;;;5.65;3.02;;;;;;;5.18;77.63;100423.95;1729782;81;21588;-76
2021/12/17 09:16:48;;;;;;;5.58;3.37;;;;;;;5.20;77.72;100420.25;1726350;81;21043;-76
2021/12/17 09:19:18;;;;;;;5.37;3.30;;;;;;;5.21;77.91;100422.70;1729555;82;21643;-76
2021/12/17 09:21:52;;;;;;;4.87;2.92;;;;;;;5.21;78.13;100410.78;1731028;82;21053;-76
2021/12/17 09:24:33;;;;;;;5.97;2.70;;;;;;;5.21;78.37;100420.56;1730704;82;21074;-75
2021/12/17 09:27:10;;;;;;;5.05;2.90;;;;;;;5.16;78.50;100409.30;1730662;82;21553;-76
2021/12/17 09:29:56;;;;;;;5.83;3.17;;;;;;;5.10;78.75;100408.88;1729095;82;21172;-75
2021/12/17 09:32:25;;;;;;;7.78;3.22;;;;;;;5.05;78.96;100414.05;1727903;82;21607;-75
2021/12/17 09:34:53;;;;;;;7.08;3.25;;;;;;;4.99;79.23;100409.64;1729522;82;21029;-76
2021/12/17 09:37:20;;;;;;;6.53;3.50;;;;;;;4.96;79.48;100408.25;1731006;82;21018;-75
2021/12/17 09:39:47;;;;;;;6.45;3.30;;;;;;;4.97;79.71;100401.11;1730037;82;21153;-76
2021/12/17 09:42:15;;;;;;;6.42;3.10;;;;;;;4.99;79.95;100405.16;1726569;82;21026;-77
2021/12/17 09:44:43;;;;;;;5.90;3.12;;;;;;;5.05;80.08;100399.48;1727082;82;21055;-75
2021/12/17 09:47:10;;;;;;;6.33;3.35;;;;;;;5.13;80.14;100390.73;1732043;82;20962;-76
2021/12/17 09:49:38;;;;;;;6.10;3.12;;;;;;;5.19;80.14;100386.36;1726217;82;21073;-76
2021/12/17 09:52:06;;;;;;;5.45;2.62;;;;;;;5.28;80.14;100382.36;1727316;82;21608;-76
2021/12/17 09:54:33;;;;;;;5.65;3.02;;;;;;;5.34;80.08;100382.78;1733449;82;21025;-76
2021/12/17 09:56:59;;;;;;;6.25;3.35;;;;;;;5.40;79.96;100377.91;1729981;82;21461;-77
2021/12/17 09:59:26;;;;;;;8.23;3.10;;;;;;;5.49;79.91;100379.69;1727203;82;21050;-75
2021/12/17 10:01:53;;;;;;;6.90;3.10;;;;;;;5.56;79.58;100384.89;1737605;82;21577;-74
2021/12/17 10:04:28;;;;;;;7.35;3.17;;;;;;;5.61;79.20;100381.05;1731028;82;21110;-75
2021/12/17 10:07:21;;;;;;;8.38;3.00;;;;;;;5.62;78.63;100385.30;1733455;82;21005;-77
2021/12/17 10:09:51;;;;;;;7.35;3.25;;;;;;;5.61;78.04;100379.72;1659840;86;21141;-76
2021/12/17 10:12:25;;;;;;;6.22;2.75;;;;;;;5.60;77.64;100368.84;1699993;82;21026;-76
2021/12/17 10:15:17;;;;;;;6.60;3.10;;;;;;;5.61;77.21;100371.78;1713846;82;21050;-76
2021/12/17 10:18:01;;;;;;;;;;;;;;;5.60;76.78;100367.52;1727419;82;21572;-74
2021/12/17 10:20:33;;;;;;;5.60;2.70;;;;;;;5.64;76.70;100377.42;1738344;82;20140;-77
2021/12/17 10:23:07;;;;;;;4.78;2.60;;;;;;;5.65;76.19;100364.98;1719140;82;20983;-77
2021/12/17 10:25:44;;;;;;;5.65;2.70;;;;;;;5.66;76.02;100370.59;1737790;82;21654;-77
2021/12/17 10:28:13;;;;;;;4.83;2.40;;;;;;;5.67;75.80;100373.52;1735830;82;21085;-78
2021/12/17 10:30:45;;;;;;;6.00;2.60;;;;;;;5.67;75.38;100362.91;1739662;82;20971;-78
2021/12/17 10:33:19;;;;;;;4.20;2.15;;;;;;;5.65;75.29;100368.43;1739831;82;21597;-77
2021/12/17 10:35:48;;;;;;;5.92;2.50;;;;;;;5.67;75.16;100369.55;1740227;82;21500;-76
2021/12/17 10:38:19;;;;;;;7.45;2.70;;;;;;;5.69;74.98;100359.50;1740067;82;21079;-77
2021/12/17 10:40:54;;;;;;;5.30;2.50;;;;;;;5.71;74.60;100356.11;1722464;82;21286;-77
2021/12/17 10:43:26;;;;;;;4.78;2.40;;;;;;;5.73;74.31;100350.08;1710242;83;21152;-78
2021/12/17 10:46:03;;;;;;;6.30;2.65;;;;;;;5.78;74.12;100356.80;1710654;83;21105;-78
2021/12/17 10:48:50;;;;;;;6.83;2.22;;;;;;;5.82;74.27;100344.73;1718220;82;21007;-78
2021/12/17 10:51:43;;;;;;;5.50;2.15;;;;;;;5.89;74.26;100349.91;1730159;82;21035;-76
2021/12/17 10:54:19;;;;;;;4.47;2.00;;;;;;;5.95;74.14;100357.47;1729714;82;20974;-78
2021/12/17 10:56:50;;;;;;;4.50;1.90;;;;;;;5.99;73.30;100348.02;1726837;82;21583;-80
2021/12/17 10:59:20;;;;;;;4.80;2.12;;;;;;;5.96;72.07;100345.33;1731535;82;20966;-78
2021/12/17 11:01:59;;;;;;;4.65;1.65;;;;;;;5.91;71.52;100345.69;1734426;82;21140;-77
2021/12/17 11:04:34;;;;;;;5.35;2.12;;;;;;;5.85;71.25;100351.39;1734108;82;21053;-79
2021/12/17 11:07:13;;;;;;;4.42;2.08;;;;;;;5.80;71.05;100345.47;1727545;82;21084;-79
2021/12/17 11:09:47;;;;;;;5.35;2.10;;;;;;;5.76;71.11;100350.95;1730103;82;21137;-79
2021/12/17 11:12:36;;;;;;;6.47;2.45;;;;;;;5.76;71.36;100347.47;1730854;82;21132;-77
2021/12/17 11:15:21;;;;;;;6.05;2.58;;;;;;;5.75;71.65;100357.27;1724643;82;21019;-79
2021/12/17 11:17:58;;;;;;;6.17;2.58;;;;;;;5.76;71.74;100349.63;1728790;82;21054;-78
2021/12/17 11:20:34;;;;;;;5.53;2.50;;;;;;;5.79;71.70;100358.94;1729831;82;21148;-78
2021/12/17 11:23:07;;;;;;;5.85;2.12;;;;;;;5.80;71.48;100349.44;1723745;82;21130;-77
2021/12/17 11:25:33;;;;;;;;;;;;;;;5.80;71.29;100346.80;1733264;82;21084;-77
2021/12/17 11:28:00;;;;;;;4.45;1.80;;;;;;;5.82;71.24;100346.05;1730502;82;20161;-77
2021/12/17 11:30:30;;;;;;;4.67;2.15;;;;;;;5.83;71.08;100343.69;1732835;82;21042;-77
2021/12/17 11:33:01;;;;;;;4.90;2.10;;;;;;;5.85;71.19;100342.91;1727441;82;21050;-78
2021/12/17 11:35:27;;;;;;;3.85;1.85;;;;;;;5.89;70.99;100343.29;1728428;82;21105;-78
2021/12/17 11:38:02;;;;;;;5.15;2.37;;;;;;;5.94;70.93;100341.29;1731627;82;21085;-78
2021/12/17 11:40:42;;;;;;;4.60;1.90;;;;;;;6.00;71.01;100347.00;1728200;82;21039;-78
2021/12/17 11:43:54;;;;;;;5.72;2.08;;;;;;;6.06;70.56;100342.09;1726699;82;21034;-78
2021/12/17 11:46:24;;;;;;;5.65;2.00;;;;;;;6.10;70.33;100344.56;1726984;82;21105;-77
2021/12/17 11:48:55;;;;;;;4.00;1.70;;;;;;;6.08;69.95;100340.00;1730651;82;21142;-78
2021/12/17 11:51:31;;;;;;;5.03;2.00;;;;;;;6.05;69.59;100357.70;1726067;82;21019;-79
2021/12/17 11:54:10;;;;;;;4.10;1.75;;;;;;;6.03;69.65;100361.92;1729923;82;21083;-78
2021/12/17 11:56:47;;;;;;;3.87;1.50;;;;;;;5.97;69.49;100357.53;1730975;82;21571;-79
2021/12/17 11:59:31;;;;;;;2.92;1.32;;;;;;;5.79;69.04;100366.39;1735677;82;21687;-77
2021/12/17 12:02:17;;;;;;;2.62;1.17;;;;;;;5.57;69.35;100372.75;1724721;82;21043;-78
2021/12/17 12:04:59;;;;;;;4.42;1.22;;;;;;;5.43;69.75;100382.44;1723044;83;21059;-78
2021/12/17 12:07:33;;;;;;;1.75;1.05;;;;;;;5.27;70.13;100380.75;1723279;83;22363;-78
2021/12/17 12:10:08;;;;;;;3.00;1.20;;;;;;;5.17;70.44;100377.84;1723170;82;21455;-78
2021/12/17 12:12:44;;;;;;;2.85;1.27;;;;;;;5.13;70.76;100379.31;1722905;83;21036;-78
2021/12/17 12:15:31;;;;;;;4.53;1.77;;;;;;;5.09;71.01;100373.66;1725258;82;22078;-76
2021/12/17 12:18:11;;;;;;;3.30;1.50;;;;;;;5.06;71.37;100381.24;1736134;82;21623;-78
2021/12/17 12:20:51;;;;;;;4.05;2.00;;;;;;;5.03;71.56;100367.13;1724272;82;21206;-77
2021/12/17 12:23:38;;;;;;;3.25;1.55;;;;;;;4.96;71.89;100375.16;1726625;82;21074;-77
2021/12/17 12:26:15;;;;;;;4.50;1.80;;;;;;;4.91;72.25;100374.52;1728720;82;21059;-78
2021/12/17 12:28:50;;;;;;;4.78;2.00;;;;;;;4.85;72.59;100379.37;1727723;82;21514;-78
2021/12/17 12:31:37;;;;;;;4.03;2.00;;;;;;;4.79;72.99;100371.01;1723622;82;21526;-77
2021/12/17 12:34:14;;;;;;;4.58;1.70;;;;;;;4.77;73.18;100371.77;1729057;82;21022;-78
2021/12/17 12:37:07;;;;;;;3.52;1.72;;;;;;;4.78;73.42;100379.19;1716804;82;21031;-78
2021/12/17 12:39:56;;;;;;;5.65;2.62;;;;;;;4.80;73.69;100385.84;1726025;82;21553;-79
2021/12/17 12:42:27;;;;;;;5.70;2.30;;;;;;;4.80;73.89;100375.78;1732130;82;21539;-78
2021/12/17 12:45:04;;;;;;;6.58;2.87;;;;;;;4.79;74.03;100378.14;1732851;82;21018;-79
2021/12/17 12:47:43;;;;;;;4.70;2.50;;;;;;;4.80;74.30;100386.36;1730261;82;21584;-79
2021/12/17 12:50:17;;;;;;;5.42;2.80;;;;;;;4.78;74.57;100395.06;1728652;82;21043;-80
2021/12/17 12:52:55;;;;;;;5.22;2.87;;;;;;;4.76;74.76;100392.63;1730638;82;20995;-79
2021/12/17 12:55:29;;;;;;;4.92;2.87;;;;;;;4.75;74.89;100390.20;1729285;82;21462;-78
2021/12/17 12:58:07;;;;;;;6.17;3.55;;;;;;;4.73;75.04;100385.64;1730292;82;21049;-78
2021/12/17 13:00:51;;;;;;;7.78;4.60;;;;;;;4.75;75.22;100388.89;1731629;82;21070;-78
2021/12/17 13:03:30;;;;;;;6.50;4.10;;;;;;;4.74;75.39;100389.41;1738916;82;20975;-79
2021/12/17 13:05:59;;;;;;;6.45;3.20;;;;;;;4.74;75.50;100390.73;1738845;82;21071;-77
2021/12/17 13:08:30;;;;;;;7.33;2.90;;;;;;;4.68;75.64;100388.97;1738796;82;22001;-78
2021/12/17 13:10:59;;;;;;;6.37;3.00;;;;;;;4.67;75.76;100397.42;1738893;82;21094;-78
2021/12/17 13:13:36;;;;;;;5.83;3.25;;;;;;;4.68;75.73;100392.94;1738687;82;21011;-78
2021/12/17 13:24:16;;;;;;;4.47;2.55;;;;;;;4.68;76.21;100404.33;1738835;82;21063;-77
2021/12/17 13:27:09;;;;;;;5.28;2.37;;;;;;;4.63;76.04;100409.98;1739040;82;21066;-79
2021/12/17 13:29:35;;;;;;;5.85;2.37;;;;;;;4.53;76.27;100407.04;1739023;82;21592;-77
2021/12/17 13:32:11;;;;;;;5.60;2.85;;;;;;;4.45;76.39;100408.95;1740258;82;21042;-78
2021/12/17 13:34:40;;;;;;;4.47;2.00;;;;;;;4.43;76.37;100411.52;1740839;82;21126;-78
2021/12/17 13:37:24;;;;;;;4.03;1.80;;;;;;;4.41;76.29;100409.11;1740333;82;20989;-78
2021/12/17 13:40:03;;;;;;;4.50;1.70;;;;;;;4.39;76.18;100420.41;1740575;82;21025;-78
2021/12/17 13:42:39;;;;;;;3.62;1.85;;;;;;;4.37;75.92;100423.77;1740180;82;21005;-77
2021/12/17 13:45:13;;;;;;;2.50;1.60;;;;;;;4.31;75.44;100415.42;1740786;82;21018;-77
2021/12/17 13:47:54;;;;;;;3.75;1.40;;;;;;;4.28;75.26;100418.50;1740207;82;22057;-79
2021/12/17 13:50:31;;;;;;;4.28;1.40;;;;;;;4.26;75.09;100419.73;1740775;82;21025;-77
2021/12/17 13:53:13;;;;;;;3.33;1.47;;;;;;;4.18;74.97;100412.91;1740269;82;21631;-76
2021/12/17 13:55:48;;;;;;;2.83;1.22;;;;;;;4.15;75.01;100419.95;1715381;82;20970;-77
2021/12/17 13:58:17;;;;;;;4.08;1.42;;;;;;;4.15;75.04;100413.34;1740448;82;21499;-77
2021/12/17 14:00:47;;;;;;;3.10;1.45;;;;;;;4.09;75.01;100416.33;1713285;82;21158;-78
2021/12/17 14:03:16;;;;;;;3.95;1.40;;;;;;;4.08;75.03;100416.05;1740226;82;21013;-77
2021/12/17 14:05:51;;;;;;;3.08;1.72;;;;;;;4.08;74.97;100416.53;1740524;82;21081;-78
2021/12/17 14:08:19;;;;;;;2.62;1.30;;;;;;;4.09;74.98;100420.81;1739465;82;21010;-77
2021/12/17 14:10:48;;;;;;;4.00;1.55;;;;;;;4.09;74.91;100416.33;1740857;82;20958;-77
2021/12/17 14:13:25;;;;;;;3.65;1.70;;;;;;;4.12;74.89;100410.61;1740344;82;21156;-77
2021/12/17 14:15:53;;;;;;;3.27;1.60;;;;;;;4.15;74.90;100420.75;1740703;82;20970;-78
2021/12/17 14:18:23;;;;;;;3.72;1.82;;;;;;;4.19;74.83;100419.80;1740123;82;21533;-78
2021/12/17 14:20:55;;;;;;;5.83;2.10;;;;;;;4.22;74.68;100420.69;1740760;82;20966;-78
2021/12/17 14:23:25;;;;;;;6.17;2.52;;;;;;;4.24;74.61;100419.94;1740217;82;21076;-78
2021/12/17 14:25:55;;;;;;;3.90;2.08;;;;;;;4.26;74.52;100423.70;1740479;82;21134;-77